Time;durP1;ratioP1;P1;durP2;ratioP2;P2;SDS_P1;SDS_P2;PMS_P1;PMS_P2;Temp;Humidity;BMP_temperature;BMP_pressure;BME280_temperature;BME280_humidity;BME280_pressure;Samples;Min_cycle;Max_cycle;Signal;HPM_P1;HPM_P2
2022/10/11 08:10:35;;;;;;;;;;;11.20;99.90;;;;;;6232418;22;19919;31
2022/10/11 08:23:36;;;;;;;;;;;11.70;99.90;;;;;;6256192;22;19939;-83
2022/10/11 09:15:49;;;;;;;;;;;;;;;;;;;;;
2022/10/11 09:18:47;;;;;;;;;;;15.00;99.90;;;;;;6308565;22;19942;-80
2022/10/11 09:40:39;;;;;;;;;;;15.70;99.90;;;;;;6250161;22;20334;-77
2022/10/11 09:59:24;;;;;;;;;;;15.60;99.90;;;;;;6259987;22;19920;-78
2022/10/11 10:02:15;;;;;;;;;;;15.60;99.90;;;;;;6132348;23;19947;-76
2022/10/11 10:14:27;;;;;;;;;;;16.00;99.90;;;;;;6213241;23;19939;-80
2022/10/11 10:20:59;;;;;;;;;;;16.30;99.90;;;;;;6213280;23;19959;-73
2022/10/11 10:27:58;;;;;;;;;;;16.50;99.90;;;;;;6246422;23;20254;-71
2022/10/11 10:30:26;;;;;;;;;;;16.50;99.90;;;;;;6219300;23;19923;-75
2022/10/11 10:36:41;;;;;;;;;;;16.40;99.90;;;;;;6244683;23;19916;-75
2022/10/11 10:39:26;;;;;;;;;;;16.30;99.90;;;;;;6219303;23;19923;-76
2022/10/11 10:53:32;;;;;;;;;;;16.00;99.90;;;;;;6281056;22;19923;-76
2022/10/11 10:57:04;;;;;;;;;;;16.00;99.90;;;;;;6285515;22;19914;-76
2022/10/11 11:03:01;;;;;;;;;;;15.70;99.90;;;;;;6276626;22;20032;-75
2022/10/11 11:05:47;;;;;;;;;;;15.60;99.90;;;;;;6224236;22;19986;-75
2022/10/11 11:08:26;;;;;;;;;;;15.50;99.90;;;;;;6249552;22;19915;-76
2022/10/11 11:11:08;;;;;;;;;;;15.60;99.90;;;;;;6224620;22;20387;-77
2022/10/11 11:13:44;;;;;;;;;;;15.60;99.90;;;;;;6224350;22;19981;-76
2022/10/11 12:50:27;;;;;;;;;;;14.50;99.90;;;;;;6268357;22;19904;-79
2022/10/11 12:53:05;;;;;;;;;;;14.50;99.90;;;;;;6223273;22;19904;-79
2022/10/11 12:55:50;;;;;;;;;;;14.50;99.90;;;;;;6223285;22;19957;-78
2022/10/11 12:58:18;;;;;;;;;;;14.60;99.90;;;;;;6212184;23;19960;-76
2022/10/11 13:01:07;;;;;;;;;;;14.70;99.90;;;;;;6220374;23;19915;-79
2022/10/11 13:03:43;;;;;;;;;;;14.70;99.90;;;;;;6203765;23;19916;-80
2022/10/11 13:06:28;;;;;;;;;;;14.80;99.90;;;;;;6220042;23;19915;-78
2022/10/11 13:08:56;;;;;;;;;;;14.80;99.90;;;;;;6193438;23;20007;-78
2022/10/11 13:11:45;;;;;;;;;;;14.90;99.90;;;;;;6219929;23;19955;-79
2022/10/11 13:14:31;;;;;;;;;;;14.90;99.90;;;;;;6178545;23;19927;-78
2022/10/11 13:17:02;;;;;;;;;;;14.90;99.90;;;;;;6197058;23;19919;-78
2022/10/11 13:19:29;;;;;;;;;;;14.90;99.90;;;;;;6197410;23;19915;-78
2022/10/11 13:21:56;;;;;;;;;;;15.00;99.90;;;;;;6194876;23;19977;-79
2022/10/11 13:24:50;;;;;;;;;;;15.00;99.90;;;;;;6194967;23;19915;-80
2022/10/11 13:27:20;;;;;;;;;;;15.00;99.90;;;;;;6194586;23;20227;-78
2022/10/11 13:46:25;;;;;;;;;;;15.30;99.90;;;;;;6241422;22;19919;-78
2022/10/11 13:49:22;;;;;;;;;;;15.20;99.90;;;;;;6223604;22;19994;-78
2022/10/11 13:55:22;;;;;;;;;;;15.20;99.90;;;;;;6238617;23;20254;-79
2022/10/11 13:57:51;;;;;;;;;;;15.10;99.90;;;;;;6192967;23;19995;-78
2022/10/11 14:00:43;;;;;;;;;;;15.00;99.90;;;;;;6191959;23;19995;-79
2022/10/11 14:16:30;;;;;;;;;;;14.90;99.90;;;;;;6246990;23;20322;-82
2022/10/11 14:19:08;;;;;;;;;;;14.90;99.90;;;;;;6197261;23;19969;-78
2022/10/11 14:21:46;;;;;;;;;;;14.80;99.90;;;;;;6196233;23;19916;-77
2022/10/11 14:24:12;;;;;;;;;;;14.80;99.90;;;;;;6195821;23;19915;-76
2022/10/11 14:26:39;;;;;;;;;;;14.80;99.90;;;;;;6219029;23;19919;-70
2022/10/11 14:29:07;;;;;;;;;;;14.80;99.90;;;;;;6195549;23;19990;-73
2022/10/11 14:31:32;;;;;;;;;;;14.70;99.90;;;;;;6221385;23;20246;-75
2022/10/11 14:34:02;;;;;;;;;;;14.60;99.90;;;;;;6196259;23;19926;-74
2022/10/11 14:36:29;;;;;;;;;;;14.60;99.90;;;;;;6247952;23;19920;-75
2022/10/11 14:38:54;;;;;;;;;;;14.50;99.90;;;;;;6221047;23;19934;-77
2022/10/11 14:41:20;;;;;;;;;;;14.50;99.90;;;;;;6220978;23;20112;-74
2022/10/11 14:43:46;;;;;;;;;;;14.40;99.90;;;;;;6220689;23;19922;-74
2022/10/11 14:46:22;;;;;;;;;;;14.30;99.90;;;;;;6221420;23;20281;-77
2022/10/11 14:48:48;;;;;;;;;;;14.30;99.90;;;;;;6221983;23;19955;-75
2022/10/11 14:51:17;;;;;;;;;;;14.20;99.90;;;;;;6195955;23;19946;-75
2022/10/11 14:53:45;;;;;;;;;;;14.20;99.90;;;;;;6220554;23;19922;-75
2022/10/11 14:56:12;;;;;;;;;;;14.20;99.90;;;;;;6221216;23;19998;-78
2022/10/11 15:24:41;;;;;;;;;;;13.70;99.90;;;;;;6094123;23;19916;-72
2022/10/11 15:33:58;;;;;;;;;;;13.50;99.90;;;;;;6093294;23;19968;-78
2022/10/11 15:36:53;;;;;;;;;;;13.50;99.90;;;;;;5991299;23;20363;-76
2022/10/11 15:39:36;;;;;;;;;;;13.40;99.90;;;;;;6011951;23;19992;-79
2022/10/11 15:45:32;;;;;;;;;;;13.40;99.90;;;;;;6037195;23;20436;-79
2022/10/11 15:51:06;;;;;;;;;;;13.20;99.90;;;;;;5979680;23;20240;-76
2022/10/11 15:53:32;;;;;;;;;;;13.10;99.90;;;;;;5958220;24;20022;-76
2022/10/11 15:56:42;;;;;;;;;;;13.10;99.90;;;;;;5957886;24;20469;-76
2022/10/11 15:59:22;;;;;;;;;;;13.00;99.90;;;;;;6014601;23;19921;-76
2022/10/11 16:01:57;;;;;;;;;;;13.10;99.90;;;;;;6021232;23;19922;-73
2022/10/11 16:04:22;;;;;;;;;;;12.90;99.90;;;;;;6042735;23;19925;-75
2022/10/11 16:06:48;;;;;;;;;;;12.80;99.90;;;;;;6068572;23;19924;-74
2022/10/11 16:09:17;;;;;;;;;;;12.80;99.90;;;;;;6159021;23;20354;-74
2022/10/11 16:11:42;;;;;;;;;;;12.70;99.90;;;;;;6158920;23;19916;-74
2022/10/11 16:14:08;;;;;;;;;;;12.70;99.90;;;;;;6134057;23;19920;-74
2022/10/11 16:17:04;;;;;;;;;;;12.70;99.90;;;;;;6161046;23;19968;-78
2022/10/11 16:19:32;;;;;;;;;;;12.60;99.90;;;;;;6124948;23;19962;-77
2022/10/11 16:25:32;;;;;;;;;;;12.50;99.90;;;;;;6276223;22;20337;-76
2022/10/11 16:28:15;;;;;;;;;;;12.40;99.90;;;;;;6224389;22;20318;-78
2022/10/11 16:30:49;;;;;;;;;;;12.30;99.90;;;;;;6224341;22;19942;-81
2022/10/11 16:33:21;;;;;;;;;;;12.20;99.90;;;;;;6224408;22;19958;-81
2022/10/11 16:36:30;;;;;;;;;;;12.10;99.90;;;;;;6223322;22;20278;-78
2022/10/11 16:39:22;;;;;;;;;;;12.10;99.90;;;;;;6247425;22;20006;-79
2022/10/11 16:42:03;;;;;;;;;;;12.00;99.90;;;;;;6226098;22;19962;-82
2022/10/11 16:45:08;;;;;;;;;;;;;;;;;;;;;
2022/10/11 16:47:51;;;;;;;;;;;11.70;99.90;;;;;;6272811;22;19977;-78
2022/10/11 16:50:31;;;;;;;;;;;11.50;99.90;;;;;;6198949;22;19922;-81
2022/10/11 16:53:20;;;;;;;;;;;;;;;;;;;;;
2022/10/11 16:56:06;;;;;;;;;;;;;;;;;;;;;
2022/10/11 16:58:40;;;;;;;;;;;11.40;99.90;;;;;;6249271;22;19915;-83
2022/10/11 17:01:22;;;;;;;;;;;11.20;99.90;;;;;;6225472;22;19995;-79
2022/10/11 17:04:05;;;;;;;;;;;11.10;99.90;;;;;;6225368;22;19922;-82
2022/10/11 17:07:06;;;;;;;;;;;10.90;99.90;;;;;;6223261;22;20393;-80
2022/10/11 17:09:59;;;;;;;;;;;;;;;;;;;;;
2022/10/11 17:12:38;;;;;;;;;;;10.80;99.90;;;;;;6157882;23;20000;-80
2022/10/11 17:15:29;;;;;;;;;;;;;;;;;;;;;
2022/10/11 17:21:42;;;;;;;;;;;10.60;99.90;;;;;;6115752;23;20336;-80
2022/10/11 17:24:33;;;;;;;;;;;;;;;;;;;;;
2022/10/11 17:27:05;;;;;;;;;;;10.50;99.90;;;;;;6077590;23;19921;-80
2022/10/11 17:29:56;;;;;;;;;;;10.40;99.90;;;;;;6098153;23;19974;-82
2022/10/11 17:32:32;;;;;;;;;;;10.10;99.90;;;;;;6076258;23;20297;-79
2022/10/11 17:35:24;;;;;;;;;;;10.20;99.90;;;;;;6072414;23;19923;-79
2022/10/11 17:38:02;;;;;;;;;;;10.10;99.90;;;;;;6069346;23;19917;-80
2022/10/11 17:43:58;;;;;;;;;;;10.00;99.90;;;;;;6150056;23;19924;-80
2022/10/11 17:53:40;;;;;;;;;;;9.70;99.90;;;;;;6163841;23;20003;-81
2022/10/11 18:00:28;;;;;;;;;;;;;;;;;;;;;
2022/10/11 18:03:29;;;;;;;;;;;9.60;99.90;;;;;;6155259;23;19954;-82
2022/10/11 18:10:20;;;;;;;;;;;;;;;;;;;;;
2022/10/11 18:13:41;;;;;;;;;;;9.40;99.90;;;;;;6034041;23;19921;-80
2022/10/11 18:19:54;;;;;;;;;;;;;;;;;;;;;
2022/10/11 18:22:54;;;;;;;;;;;;;;;;;;;;;
2022/10/11 18:25:52;;;;;;;;;;;9.20;99.90;;;;;;6183726;23;19970;-81
2022/10/11 18:35:47;;;;;;;;;;;9.00;99.90;;;;;;6038921;23;19933;-79
2022/10/11 18:38:26;;;;;;;;;;;9.00;99.90;;;;;;5996001;23;19959;-80
2022/10/11 18:41:30;;;;;;;;;;;9.00;99.90;;;;;;5965982;23;20310;-79
2022/10/11 18:43:59;;;;;;;;;;;8.90;99.90;;;;;;6083921;23;19960;-79
2022/10/11 18:50:38;;;;;;;;;;;;;;;;;;;;;
2022/10/11 18:53:47;;;;;;;;;;;8.80;99.90;;;;;;6101380;23;20003;-81
2022/10/11 18:56:33;;;;;;;;;;;8.70;99.90;;;;;;6157843;23;19924;-80
2022/10/11 19:08:39;;;;;;;;;;;8.70;99.90;;;;;;6096046;23;19952;-82
2022/10/11 19:11:40;;;;;;;;;;;;;;;;;;;;;
2022/10/11 19:15:05;;;;;;;;;;;8.50;99.90;;;;;;6100870;23;19921;-78
2022/10/11 19:18:18;;;;;;;;;;;;;;;;;;;;;
2022/10/11 19:23:59;;;;;;;;;;;8.30;99.90;;;;;;6036749;23;19992;-80
2022/10/11 19:31:08;;;;;;;;;;;8.40;99.90;;;;;;5959623;23;19948;-81
2022/10/11 19:33:44;;;;;;;;;;;8.20;99.90;;;;;;6016864;23;19980;-82
2022/10/11 19:36:51;;;;;;;;;;;;;;;;;;;;;
2022/10/11 19:40:09;;;;;;;;;;;;;;;;;;;;;
2022/10/11 19:43:04;;;;;;;;;;;8.20;99.90;;;;;;6086007;23;19956;-83
2022/10/11 19:45:38;;;;;;;;;;;8.20;99.90;;;;;;6038690;23;19921;-82
2022/10/11 19:48:24;;;;;;;;;;;8.10;99.90;;;;;;6076765;23;19932;-80
2022/10/11 19:51:33;;;;;;;;;;;7.80;99.90;;;;;;6093924;23;19925;-80
2022/10/11 19:54:12;;;;;;;;;;;8.10;99.90;;;;;;6103581;23;19905;-83
2022/10/11 19:57:12;;;;;;;;;;;7.90;99.90;;;;;;6063447;23;19970;-79
2022/10/11 19:59:51;;;;;;;;;;;8.00;99.90;;;;;;6015285;23;20007;-82
2022/10/11 20:02:22;;;;;;;;;;;8.00;99.90;;;;;;6095379;23;19916;-80
2022/10/11 20:04:48;;;;;;;;;;;7.90;99.90;;;;;;6129511;23;20228;-78
2022/10/11 20:07:16;;;;;;;;;;;8.00;99.90;;;;;;6143129;23;19970;-82
2022/10/11 20:09:42;;;;;;;;;;;7.80;99.90;;;;;;6163944;23;19923;-79
2022/10/11 20:16:19;;;;;;;;;;;7.80;99.90;;;;;;6073859;23;19923;-85
2022/10/11 20:32:14;;;;;;;;;;;7.50;99.90;;;;;;6124155;23;19996;-80
